Time;durP1;ratioP1;P1;durP2;ratioP2;P2;SDS_P1;SDS_P2;PMS_P1;PMS_P2;Temp;Humidity;BMP_temperature;BMP_pressure;BME280_temperature;BME280_humidity;BME280_pressure;Samples;Min_cycle;Max_cycle;Signal;HPM_P1;HPM_P2
2022/01/28 00:01:51;;;;;;;4.22;2.95;;;3.20;99.90;;;;;;4996195;28;20494;-80
2022/01/28 00:04:17;;;;;;;3.08;2.78;;;3.20;99.90;;;;;;4995565;28;20185;-81
2022/01/28 00:06:43;;;;;;;3.60;2.97;;;3.20;99.90;;;;;;4996614;28;20704;-76
2022/01/28 00:09:09;;;;;;;2.70;2.50;;;3.20;99.90;;;;;;4993809;28;20266;-81
2022/01/28 00:11:35;;;;;;;3.25;2.58;;;3.20;99.90;;;;;;4996205;28;20524;-76
2022/01/28 00:14:17;;;;;;;3.30;3.00;;;3.20;99.90;;;;;;4993984;28;20337;-78
2022/01/28 00:38:32;;;;;;;3.15;2.85;;;3.20;99.90;;;;;;4992307;28;20700;-79
2022/01/28 00:40:57;;;;;;;2.75;2.50;;;3.20;99.90;;;;;;4992313;28;20253;-80
2022/01/28 00:43:23;;;;;;;3.80;3.40;;;3.30;99.90;;;;;;4992274;28;20707;-79
2022/01/28 00:45:49;;;;;;;3.40;3.10;;;3.20;99.90;;;;;;4958659;28;20965;-79
2022/01/28 00:48:15;;;;;;;3.20;2.87;;;3.30;99.90;;;;;;4992287;28;20727;-80
2022/01/28 00:50:42;;;;;;;3.10;2.90;;;3.20;99.90;;;;;;4992160;28;20414;-80
2022/01/28 00:53:11;;;;;;;3.85;3.25;;;3.30;99.90;;;;;;4991714;28;20441;-79
2022/01/28 00:55:37;;;;;;;3.00;2.60;;;3.20;99.90;;;;;;4974647;28;20626;-79
2022/01/28 00:58:03;;;;;;;14.23;3.20;;;3.20;99.90;;;;;;4974179;28;20476;-81
2022/01/28 01:00:29;;;;;;;4.18;3.08;;;3.20;99.90;;;;;;4990777;28;20185;-81
2022/01/28 01:02:55;;;;;;;6.53;3.10;;;3.20;99.90;;;;;;4992227;28;20569;-80
2022/01/28 01:05:22;;;;;;;4.03;3.27;;;3.20;99.90;;;;;;4990681;28;20176;-80
2022/01/28 01:07:48;;;;;;;3.33;2.80;;;3.20;99.90;;;;;;4991829;28;20561;-80
2022/01/28 01:10:14;;;;;;;3.70;3.38;;;3.20;99.90;;;;;;4991930;28;20192;-80
2022/01/28 01:12:44;;;;;;;2.90;2.60;;;3.10;99.90;;;;;;4989804;28;20188;-79
2022/01/28 01:15:12;;;;;;;2.97;2.65;;;3.20;99.90;;;;;;4974330;28;20746;-80
2022/01/28 01:17:57;;;;;;;3.72;2.92;;;3.10;99.90;;;;;;4973592;28;20227;-80
2022/01/28 01:23:09;;;;;;;3.08;2.80;;;3.10;99.90;;;;;;4990986;28;20220;-79
2022/01/28 01:25:50;;;;;;;3.35;3.05;;;3.10;99.90;;;;;;4990663;28;20203;-78
2022/01/28 01:28:20;;;;;;;3.10;2.90;;;3.10;99.90;;;;;;4989628;28;20191;-79
2022/01/28 01:30:47;;;;;;;3.97;2.75;;;3.10;99.90;;;;;;4989393;28;20979;-80
2022/01/28 01:33:15;;;;;;;3.58;3.28;;;3.10;99.90;;;;;;4973227;28;20198;-80
2022/01/28 01:35:41;;;;;;;3.03;2.72;;;3.10;99.90;;;;;;4990411;28;20201;-80
2022/01/28 01:38:09;;;;;;;3.07;2.83;;;3.20;99.90;;;;;;4989120;28;20227;-79
2022/01/28 01:40:50;;;;;;;3.78;3.47;;;3.20;99.90;;;;;;4973279;28;20291;-79
2022/01/28 01:46:25;;;;;;;3.72;2.50;;;3.10;99.90;;;;;;4989231;28;20611;-81
2022/01/28 01:54:19;;;;;;;4.28;2.75;;;3.20;99.90;;;;;;4992174;28;20667;-77
2022/01/28 01:56:45;;;;;;;3.70;3.20;;;3.20;99.90;;;;;;4992593;28;20220;-77
2022/01/28 01:59:11;;;;;;;3.72;2.95;;;3.20;99.90;;;;;;4992017;28;20644;-77
2022/01/28 02:01:39;;;;;;;5.40;3.30;;;3.20;99.90;;;;;;4989938;28;20195;-77
2022/01/28 02:04:05;;;;;;;3.00;2.70;;;3.20;99.90;;;;;;4990066;28;20934;-79
2022/01/28 02:06:32;;;;;;;4.15;3.00;;;3.30;99.90;;;;;;4991073;28;20205;-77
2022/01/28 02:08:59;;;;;;;3.40;3.10;;;3.10;99.90;;;;;;4991719;28;20187;-78
2022/01/28 02:11:25;;;;;;;4.65;2.65;;;3.20;99.90;;;;;;4989250;28;20810;-79
2022/01/28 02:13:52;;;;;;;2.60;2.40;;;3.10;99.90;;;;;;4989987;28;20186;-79
2022/01/28 02:16:18;;;;;;;3.10;2.58;;;3.20;99.90;;;;;;4990936;28;20210;-78
2022/01/28 02:18:44;;;;;;;4.25;3.10;;;3.10;99.90;;;;;;4989613;28;20188;-77
2022/01/28 02:21:13;;;;;;;3.50;2.57;;;3.20;99.90;;;;;;4992072;28;20260;-78
2022/01/28 02:23:40;;;;;;;2.85;2.60;;;3.20;99.90;;;;;;4989267;28;20235;-79
2022/01/28 02:26:07;;;;;;;4.22;2.40;;;3.20;99.90;;;;;;4991724;28;20213;-78
2022/01/28 02:28:37;;;;;;;5.13;2.75;;;3.20;99.90;;;;;;4989651;28;20183;-78
2022/01/28 02:31:04;;;;;;;2.90;2.70;;;3.20;99.90;;;;;;4973457;28;20230;-78
2022/01/28 02:33:30;;;;;;;3.03;2.25;;;3.20;99.90;;;;;;4972458;28;20574;-77
2022/01/28 02:36:03;;;;;;;4.20;2.50;;;3.20;99.90;;;;;;4989703;28;20204;-78
2022/01/28 02:38:28;;;;;;;3.83;2.90;;;3.20;99.90;;;;;;4992285;28;20414;-79
2022/01/28 02:40:57;;;;;;;2.60;2.40;;;3.10;99.90;;;;;;4993957;28;20521;-80
2022/01/28 02:43:34;;;;;;;3.33;2.72;;;3.20;99.90;;;;;;4992189;28;20190;-79
2022/01/28 02:46:12;;;;;;;3.13;2.60;;;3.20;99.90;;;;;;4992381;28;20211;-78
2022/01/28 02:48:42;;;;;;;3.42;3.13;;;3.30;99.90;;;;;;4978028;28;20188;-80
2022/01/28 02:51:16;;;;;;;4.10;3.70;;;3.20;99.90;;;;;;4993833;28;20188;-79
2022/01/28 02:56:16;;;;;;;3.70;3.40;;;3.20;99.90;;;;;;4994519;28;20475;-78
2022/01/28 02:58:43;;;;;;;4.35;3.50;;;3.20;99.90;;;;;;4992473;28;20672;-78
2022/01/28 03:01:13;;;;;;;3.22;2.92;;;3.20;99.90;;;;;;4994119;28;20280;-79
2022/01/28 03:03:39;;;;;;;4.35;3.75;;;3.20;99.90;;;;;;4992541;28;20188;-78
2022/01/28 03:06:05;;;;;;;4.43;3.30;;;3.20;99.90;;;;;;4994005;28;20685;-79
2022/01/28 03:08:31;;;;;;;3.63;3.33;;;3.20;99.90;;;;;;4992339;28;20195;-78
2022/01/28 03:16:29;;;;;;;4.20;3.10;;;3.20;99.90;;;;;;4993924;28;20572;-78
2022/01/28 03:18:59;;;;;;;3.42;3.13;;;3.20;99.90;;;;;;4994147;28;20196;-79
2022/01/28 03:21:39;;;;;;;5.30;3.63;;;3.20;99.90;;;;;;4992345;28;20198;-80
2022/01/28 03:24:07;;;;;;;6.43;3.73;;;3.20;99.90;;;;;;4994084;28;20230;-79
2022/01/28 03:26:33;;;;;;;4.38;3.92;;;3.20;99.90;;;;;;4993632;28;20480;-80
2022/01/28 03:28:59;;;;;;;4.13;3.70;;;3.20;99.90;;;;;;4993358;28;20216;-78
2022/01/28 03:31:24;;;;;;;4.80;3.60;;;3.20;99.90;;;;;;4975413;28;20196;-79
2022/01/28 03:33:50;;;;;;;4.23;3.40;;;3.20;99.90;;;;;;4993107;28;20181;-78
2022/01/28 03:36:16;;;;;;;3.77;3.40;;;3.20;99.90;;;;;;4991457;28;20244;-78
2022/01/28 03:38:42;;;;;;;4.67;3.60;;;3.30;99.90;;;;;;4992800;28;20222;-79
2022/01/28 03:41:16;;;;;;;4.00;3.40;;;3.20;99.90;;;;;;4992667;28;20683;-78
2022/01/28 03:43:58;;;;;;;4.82;3.90;;;3.20;99.90;;;;;;4991309;28;20188;-79
2022/01/28 03:46:28;;;;;;;5.80;3.90;;;3.20;99.90;;;;;;4991346;28;20199;-78
2022/01/28 03:48:55;;;;;;;4.20;3.80;;;3.40;99.90;;;;;;4991364;28;20242;-79
2022/01/28 03:51:21;;;;;;;4.53;3.30;;;3.20;99.90;;;;;;4991695;28;20184;-78
2022/01/28 03:53:48;;;;;;;5.28;4.45;;;3.20;99.90;;;;;;4993069;28;20843;-79
2022/01/28 03:56:14;;;;;;;8.20;4.30;;;3.20;99.90;;;;;;4993423;28;20758;-79
2022/01/28 03:58:41;;;;;;;4.17;3.73;;;3.20;99.90;;;;;;4992522;28;20459;-79
2022/01/28 04:01:14;;;;;;;5.23;4.43;;;3.20;99.90;;;;;;4990944;28;20439;-78
2022/01/28 04:03:47;;;;;;;4.85;4.00;;;3.20;99.90;;;;;;4991050;28;20215;-80
2022/01/28 04:11:44;;;;;;;6.30;3.95;;;3.10;99.90;;;;;;4977863;28;20187;-79
2022/01/28 04:19:20;;;;;;;7.25;4.38;;;3.00;99.90;;;;;;4992726;28;20222;-79
2022/01/28 04:21:46;;;;;;;5.20;4.25;;;3.00;99.90;;;;;;4990808;28;20212;-79
2022/01/28 04:24:12;;;;;;;4.13;3.73;;;3.10;99.90;;;;;;4991427;28;20205;-79
2022/01/28 04:26:38;;;;;;;4.35;3.92;;;3.00;99.90;;;;;;4974990;28;20216;-79
2022/01/28 04:29:04;;;;;;;5.60;4.20;;;3.00;99.90;;;;;;4993754;28;20188;-78
2022/01/28 04:31:30;;;;;;;5.90;4.38;;;2.90;99.90;;;;;;4993746;28;20332;-78
2022/01/28 04:33:56;;;;;;;5.67;4.43;;;2.90;99.90;;;;;;4994276;28;20602;-78
2022/01/28 04:36:25;;;;;;;7.40;4.40;;;2.90;99.90;;;;;;4994772;28;20211;-78
2022/01/28 04:39:10;;;;;;;6.05;5.13;;;3.00;99.90;;;;;;4995107;28;20190;-77
2022/01/28 04:44:13;;;;;;;5.55;4.03;;;3.00;99.90;;;;;;4994084;28;20675;-78
2022/01/28 04:57:02;;;;;;;8.02;4.90;;;2.90;99.90;;;;;;4990974;28;20228;-75
2022/01/28 04:59:52;;;;;;;5.20;4.10;;;2.90;99.90;;;;;;4975471;28;20191;-75
2022/01/28 05:02:40;;;;;;;5.45;4.68;;;2.90;99.90;;;;;;4990208;28;20219;-76
2022/01/28 05:07:43;;;;;;;6.93;4.70;;;2.90;99.90;;;;;;4990653;28;20249;-76
2022/01/28 05:13:29;;;;;;;6.47;4.45;;;2.90;99.90;;;;;;4990867;28;20279;-76
2022/01/28 05:26:37;;;;;;;4.40;4.00;;;2.90;99.90;;;;;;4989212;28;20216;-76
2022/01/28 05:29:03;;;;;;;9.40;4.68;;;2.90;99.90;;;;;;4989178;28;20191;-75
2022/01/28 05:31:29;;;;;;;5.63;4.53;;;2.90;99.90;;;;;;4987651;28;20192;-75
2022/01/28 05:33:55;;;;;;;7.30;5.25;;;3.00;99.90;;;;;;4989035;28;20428;-75
2022/01/28 05:36:22;;;;;;;5.10;3.50;;;2.90;99.90;;;;;;4988999;28;20215;-75
2022/01/28 05:38:48;;;;;;;6.43;4.20;;;2.80;99.90;;;;;;4989177;28;20179;-75
2022/01/28 05:41:14;;;;;;;6.47;4.60;;;2.90;99.90;;;;;;4989310;28;20195;-75
2022/01/28 05:43:39;;;;;;;7.93;4.70;;;2.80;99.90;;;;;;4989417;28;20917;-76
2022/01/28 05:46:05;;;;;;;5.00;4.43;;;2.80;99.90;;;;;;4988098;28;20266;-76
2022/01/28 05:48:31;;;;;;;8.33;4.10;;;2.80;99.90;;;;;;4989276;28;20184;-76
2022/01/28 05:50:57;;;;;;;12.93;4.33;;;2.70;99.90;;;;;;4989202;28;20652;-75
2022/01/28 05:53:22;;;;;;;6.20;4.40;;;2.70;99.90;;;;;;4988981;28;20195;-75
2022/01/28 05:55:48;;;;;;;6.23;4.23;;;2.70;99.90;;;;;;4988965;28;20276;-76
2022/01/28 05:58:13;;;;;;;7.87;4.90;;;2.60;99.90;;;;;;4988936;28;20254;-76
2022/01/28 06:00:39;;;;;;;6.50;4.50;;;2.60;99.90;;;;;;4988914;28;20178;-75
2022/01/28 06:03:05;;;;;;;5.73;4.10;;;2.50;99.90;;;;;;4987561;28;20565;-75
2022/01/28 06:05:30;;;;;;;7.33;4.43;;;2.50;99.90;;;;;;4987056;28;20563;-75
2022/01/28 06:08:00;;;;;;;8.60;5.73;;;2.50;99.90;;;;;;4988524;28;20180;-76
2022/01/28 06:10:26;;;;;;;6.63;4.68;;;2.50;99.90;;;;;;4988348;28;20230;-75
2022/01/28 06:12:52;;;;;;;8.25;6.43;;;2.50;99.90;;;;;;4986217;28;20228;-75
2022/01/28 06:15:18;;;;;;;12.47;5.30;;;2.50;99.90;;;;;;4986832;28;20223;-75
2022/01/28 06:17:43;;;;;;;7.90;5.40;;;2.50;99.90;;;;;;4988371;28;20285;-75
2022/01/28 06:20:13;;;;;;;9.47;5.80;;;2.50;99.90;;;;;;4988238;28;20430;-75
2022/01/28 06:22:39;;;;;;;14.43;5.90;;;2.30;99.90;;;;;;4988826;28;20182;-75
2022/01/28 06:25:07;;;;;;;8.27;6.53;;;2.40;99.90;;;;;;4988648;28;20261;-75
2022/01/28 06:27:33;;;;;;;7.78;5.45;;;2.30;99.90;;;;;;4986967;28;20236;-74
2022/01/28 06:29:59;;;;;;;9.65;5.57;;;2.40;99.90;;;;;;4988261;28;20670;-75
2022/01/28 06:32:25;;;;;;;9.13;5.67;;;2.30;99.90;;;;;;4988129;28;20201;-75
2022/01/28 06:34:50;;;;;;;11.97;6.07;;;2.30;99.90;;;;;;4988241;28;20192;-75
2022/01/28 06:37:16;;;;;;;8.07;5.80;;;2.30;99.90;;;;;;4987703;28;20247;-75
2022/01/28 06:39:44;;;;;;;12.30;6.10;;;2.30;99.90;;;;;;4988283;28;20276;-75
2022/01/28 06:42:10;;;;;;;6.47;4.95;;;2.30;99.90;;;;;;4987798;28;20192;-74
2022/01/28 06:44:35;;;;;;;7.80;5.30;;;2.30;99.90;;;;;;4986768;28;20195;-75
2022/01/28 06:47:01;;;;;;;6.60;4.90;;;2.30;99.90;;;;;;4987562;28;20204;-76
2022/01/28 06:49:27;;;;;;;6.60;4.77;;;2.30;99.90;;;;;;4987809;28;20869;-75
2022/01/28 06:51:52;;;;;;;8.90;4.73;;;2.20;99.90;;;;;;4987528;28;20187;-75
2022/01/28 06:54:18;;;;;;;7.60;5.43;;;2.20;99.90;;;;;;4970058;28;20306;-75
2022/01/28 06:56:44;;;;;;;8.00;5.70;;;2.30;99.90;;;;;;4987935;28;20670;-75
2022/01/28 06:59:11;;;;;;;6.70;4.68;;;2.20;99.90;;;;;;4987866;28;20648;-76
2022/01/28 07:01:37;;;;;;;11.30;5.32;;;2.20;99.90;;;;;;4988055;28;20640;-76
2022/01/28 07:04:03;;;;;;;12.48;5.70;;;2.20;99.90;;;;;;4986420;28;20185;-76
2022/01/28 07:06:29;;;;;;;7.05;4.32;;;2.20;99.90;;;;;;4987573;28;20216;-76
2022/01/28 07:08:55;;;;;;;6.47;5.43;;;2.30;99.90;;;;;;4987715;28;20191;-76
2022/01/28 07:11:20;;;;;;;9.47;4.40;;;2.30;99.90;;;;;;4987436;28;20191;-76
2022/01/28 07:13:46;;;;;;;7.93;5.00;;;2.30;99.90;;;;;;4986140;28;20209;-76
2022/01/28 07:16:11;;;;;;;6.03;4.43;;;2.40;99.90;;;;;;4985714;28;20313;-76
2022/01/28 07:18:37;;;;;;;4.30;3.90;;;2.40;99.90;;;;;;4985899;28;20176;-76
2022/01/28 07:21:03;;;;;;;11.90;4.57;;;2.50;99.90;;;;;;4985719;28;20193;-76
2022/01/28 07:23:29;;;;;;;9.90;5.30;;;2.50;99.90;;;;;;4985936;28;20315;-76
2022/01/28 07:25:57;;;;;;;5.20;4.07;;;2.60;99.90;;;;;;4990913;28;20255;-76
2022/01/28 07:28:25;;;;;;;8.02;4.63;;;2.60;99.90;;;;;;4990712;28;20187;-75
2022/01/28 07:30:50;;;;;;;6.25;4.65;;;2.60;99.90;;;;;;4990775;28;20235;-76
2022/01/28 07:33:16;;;;;;;11.37;5.00;;;2.70;99.90;;;;;;4990628;28;20675;-76
2022/01/28 07:35:42;;;;;;;6.17;5.00;;;2.70;99.90;;;;;;4990683;28;20210;-76
2022/01/28 07:38:07;;;;;;;8.43;5.37;;;2.70;99.90;;;;;;4990478;28;20221;-75
2022/01/28 07:40:33;;;;;;;6.93;5.10;;;2.70;99.90;;;;;;4990764;28;20186;-76
2022/01/28 07:42:59;;;;;;;6.80;4.80;;;2.80;99.90;;;;;;4990599;28;20507;-76
2022/01/28 07:45:25;;;;;;;6.87;4.70;;;2.80;99.90;;;;;;4988918;28;20513;-74
2022/01/28 07:47:51;;;;;;;7.70;5.30;;;2.80;99.90;;;;;;4990371;28;20184;-74
2022/01/28 07:50:17;;;;;;;6.80;4.60;;;2.80;99.90;;;;;;4990806;28;20419;-75
2022/01/28 07:52:43;;;;;;;6.85;5.22;;;2.70;99.90;;;;;;4990483;28;20253;-76
2022/01/28 07:55:13;;;;;;;6.60;4.87;;;2.70;99.90;;;;;;4990146;28;20192;-74
2022/01/28 07:57:40;;;;;;;10.45;5.07;;;2.80;99.90;;;;;;4990220;28;20210;-74
2022/01/28 08:00:08;;;;;;;11.85;4.50;;;2.70;99.90;;;;;;4990236;28;20242;-75
2022/01/28 08:02:34;;;;;;;4.65;4.25;;;2.70;99.90;;;;;;4990223;28;20266;-74
2022/01/28 08:05:00;;;;;;;8.20;5.13;;;2.70;99.90;;;;;;4988775;28;20191;-74
2022/01/28 08:07:25;;;;;;;10.63;5.20;;;2.80;99.90;;;;;;4989970;28;20226;-76
2022/01/28 08:09:51;;;;;;;7.93;4.20;;;2.80;99.90;;;;;;4988639;28;20208;-75
2022/01/28 08:12:17;;;;;;;8.23;5.00;;;2.80;99.90;;;;;;4989958;28;20188;-76
2022/01/28 08:14:43;;;;;;;6.47;4.60;;;2.80;99.90;;;;;;4988548;28;20214;-75
2022/01/28 08:17:08;;;;;;;6.20;5.13;;;2.80;99.90;;;;;;4989593;28;20554;-76
2022/01/28 08:19:34;;;;;;;7.93;5.03;;;2.80;99.90;;;;;;4989818;28;20183;-76
2022/01/28 08:21:59;;;;;;;12.27;5.30;;;2.90;99.90;;;;;;4972217;28;20588;-76
2022/01/28 08:24:25;;;;;;;8.30;4.43;;;3.20;99.90;;;;;;4988390;28;20188;-74
2022/01/28 08:26:51;;;;;;;9.17;4.70;;;3.20;99.90;;;;;;4989387;28;20212;-74
2022/01/28 08:29:21;;;;;;;6.07;4.57;;;3.20;99.90;;;;;;4988315;28;20213;-76
2022/01/28 08:31:46;;;;;;;7.45;4.72;;;3.20;99.90;;;;;;4987907;28;20194;-73
2022/01/28 08:34:12;;;;;;;9.43;5.23;;;3.20;99.90;;;;;;4987896;28;20199;-74
2022/01/28 08:36:38;;;;;;;5.40;4.82;;;3.20;99.90;;;;;;4988620;28;20523;-74
2022/01/28 08:39:05;;;;;;;5.28;4.25;;;3.30;99.90;;;;;;4989565;28;20237;-75
2022/01/28 08:41:32;;;;;;;6.90;5.10;;;3.20;99.90;;;;;;4989406;28;20541;-76
2022/01/28 08:43:58;;;;;;;9.32;4.95;;;3.20;99.90;;;;;;4989425;28;20187;-75
2022/01/28 08:46:24;;;;;;;5.63;4.47;;;3.20;99.90;;;;;;4987904;28;20257;-76
2022/01/28 08:48:50;;;;;;;5.53;4.90;;;3.20;99.90;;;;;;4987924;28;20432;-76
2022/01/28 08:51:16;;;;;;;8.83;4.50;;;3.40;99.90;;;;;;4989428;28;20226;-75
2022/01/28 08:53:42;;;;;;;6.35;5.13;;;3.40;99.90;;;;;;4989137;28;20205;-76
2022/01/28 08:56:08;;;;;;;5.67;4.97;;;3.50;99.90;;;;;;4971508;28;20604;-76
2022/01/28 08:58:34;;;;;;;26.73;9.77;;;3.50;99.90;;;;;;4989188;28;20422;-76
2022/01/28 09:01:00;;;;;;;23.23;15.40;;;3.40;99.90;;;;;;4989263;28;20860;-74
2022/01/28 09:03:26;;;;;;;7.50;5.40;;;3.40;99.90;;;;;;4989509;28;20781;-76
2022/01/28 09:05:51;;;;;;;6.77;4.30;;;3.30;99.90;;;;;;4989163;28;20443;-73
2022/01/28 09:08:17;;;;;;;6.13;4.13;;;3.30;99.90;;;;;;4988884;28;20188;-76
2022/01/28 09:10:56;;;;;;;7.57;4.80;;;3.20;99.90;;;;;;4989091;28;20668;-75
2022/01/28 09:13:25;;;;;;;6.70;4.60;;;3.30;99.90;;;;;;4989395;28;20188;-76
2022/01/28 09:15:54;;;;;;;7.10;5.13;;;3.30;99.90;;;;;;4988746;28;21712;-75
2022/01/28 09:18:20;;;;;;;13.30;5.07;;;3.30;99.90;;;;;;4988777;28;20898;-76
2022/01/28 09:20:47;;;;;;;8.93;4.60;;;3.30;99.90;;;;;;4988689;28;20198;-76
2022/01/28 09:23:13;;;;;;;9.85;4.95;;;3.30;99.90;;;;;;4988747;28;20431;-76
2022/01/28 09:25:39;;;;;;;5.10;4.20;;;3.30;99.90;;;;;;4988625;28;20282;-76
2022/01/28 09:28:05;;;;;;;11.13;4.87;;;3.30;99.90;;;;;;4988580;28;20880;-75
2022/01/28 09:30:32;;;;;;;7.93;4.40;;;3.40;99.90;;;;;;4987584;28;20190;-80
2022/01/28 09:32:58;;;;;;;7.10;4.93;;;3.30;99.90;;;;;;4988577;28;20242;-76
2022/01/28 09:35:24;;;;;;;14.95;6.97;;;3.40;99.90;;;;;;4988199;28;20424;-76
2022/01/28 09:37:51;;;;;;;6.20;4.63;;;3.60;99.90;;;;;;4988169;28;20539;-76
2022/01/28 09:47:38;;;;;;;7.53;4.07;;;4.00;99.90;;;;;;4988609;28;20788;-76
2022/01/28 09:50:05;;;;;;;12.10;7.03;;;4.20;99.90;;;;;;4989374;28;20412;-76
2022/01/28 09:52:31;;;;;;;6.22;3.75;;;4.40;99.90;;;;;;4989143;28;20435;-76
2022/01/28 09:54:57;;;;;;;7.50;4.13;;;4.70;99.90;;;;;;4987921;28;20187;-76
2022/01/28 09:57:23;;;;;;;7.33;4.60;;;4.70;99.90;;;;;;4989077;28;20476;-76
2022/01/28 09:59:48;;;;;;;10.17;5.00;;;4.80;99.90;;;;;;4987527;28;20197;-76
2022/01/28 10:02:14;;;;;;;5.37;3.90;;;5.40;99.90;;;;;;4989118;28;20182;-75
2022/01/28 10:04:40;;;;;;;10.90;4.67;;;6.80;99.90;;;;;;4987712;28;20420;-76
2022/01/28 10:07:11;;;;;;;7.57;4.10;;;6.60;99.90;;;;;;4987676;28;21152;-76
2022/01/28 10:09:52;;;;;;;6.60;4.20;;;6.50;99.90;;;;;;4989097;28;20178;-75
2022/01/28 10:12:23;;;;;;;8.57;4.40;;;6.10;99.90;;;;;;4989161;28;20412;-75
2022/01/28 10:15:07;;;;;;;8.90;4.70;;;6.40;99.90;;;;;;4989388;28;20425;-76
2022/01/28 10:17:53;;;;;;;11.70;4.77;;;6.40;99.90;;;;;;4988970;28;20460;-76
2022/01/28 10:20:20;;;;;;;9.43;4.30;;;6.30;99.90;;;;;;4989154;28;20489;-75
2022/01/28 10:22:55;;;;;;;10.80;4.10;;;6.20;99.90;;;;;;4988939;28;20425;-76
2022/01/28 10:25:33;;;;;;;4.97;3.97;;;6.00;99.90;;;;;;4989235;28;20420;-76
2022/01/28 10:28:02;;;;;;;6.00;3.43;;;6.00;99.90;;;;;;4987693;28;20421;-76
2022/01/28 10:30:29;;;;;;;4.03;3.07;;;6.00;99.90;;;;;;4987880;28;20934;-76
2022/01/28 10:33:11;;;;;;;5.97;3.90;;;6.10;99.90;;;;;;4989357;28;20789;-75
2022/01/28 10:35:36;;;;;;;11.50;3.70;;;6.20;99.90;;;;;;4989054;28;20508;-74
2022/01/28 10:38:04;;;;;;;6.20;3.47;;;6.30;99.90;;;;;;4989093;28;20567;-76
2022/01/28 10:40:29;;;;;;;9.43;3.53;;;6.30;99.90;;;;;;4989417;28;20856;-76
2022/01/28 10:42:55;;;;;;;2.97;2.60;;;6.40;99.90;;;;;;4989332;28;20512;-76
2022/01/28 10:45:24;;;;;;;4.93;2.57;;;6.50;99.90;;;;;;4987942;28;20600;-75
2022/01/28 10:47:55;;;;;;;8.13;3.70;;;6.50;99.90;;;;;;4989823;28;20192;-76
2022/01/28 10:50:33;;;;;;;4.50;2.50;;;6.50;99.90;;;;;;4988529;28;20463;-75
2022/01/28 10:53:06;;;;;;;5.30;3.00;;;6.40;99.90;;;;;;4989105;28;20451;-75
2022/01/28 10:55:34;;;;;;;3.70;2.60;;;6.50;99.90;;;;;;4988103;28;20785;-75
2022/01/28 10:58:15;;;;;;;6.97;3.20;;;6.60;99.90;;;;;;4988924;28;20486;-75
2022/01/28 11:00:43;;;;;;;4.20;2.90;;;6.60;99.90;;;;;;4991542;28;20428;-73
2022/01/28 11:03:11;;;;;;;5.20;2.47;;;6.70;99.90;;;;;;4992688;28;20997;-75
2022/01/28 11:05:37;;;;;;;6.27;2.20;;;6.50;99.90;;;;;;4992625;28;20424;-75
2022/01/28 11:08:06;;;;;;;9.10;2.90;;;6.50;99.90;;;;;;4992672;28;20428;-75
2022/01/28 11:10:32;;;;;;;3.73;2.30;;;6.50;99.90;;;;;;4992897;28;20425;-75
2022/01/28 11:12:59;;;;;;;5.97;2.63;;;6.70;99.90;;;;;;4991526;28;20425;-75
2022/01/28 11:15:25;;;;;;;8.10;2.57;;;7.30;99.90;;;;;;4992873;28;20428;-75
2022/01/28 11:17:52;;;;;;;2.90;1.90;;;7.90;99.90;;;;;;4992892;28;20569;-76
2022/01/28 11:20:22;;;;;;;3.00;2.13;;;9.10;99.90;;;;;;4993483;28;20475;-76
2022/01/28 11:23:08;;;;;;;8.27;2.30;;;9.10;97.70;;;;;;4992936;28;20417;-75
2022/01/28 11:25:49;;;;;;;5.73;2.00;;;8.90;96.50;;;;;;4992689;28;20404;-75
2022/01/28 11:28:15;;;;;;;8.27;2.23;;;8.80;97.20;;;;;;4991181;28;20440;-75
2022/01/28 11:30:45;;;;;;;3.07;2.53;;;8.60;98.60;;;;;;4992706;28;20429;-76
2022/01/28 11:33:11;;;;;;;6.20;1.97;;;8.20;98.90;;;;;;4992695;28;20181;-75
2022/01/28 11:36:04;;;;;;;7.73;2.40;;;8.10;98.10;;;;;;4991441;28;20692;-75
2022/01/28 11:38:30;;;;;;;6.13;2.40;;;8.10;98.90;;;;;;4990490;28;20579;-76
2022/01/28 11:40:57;;;;;;;6.57;2.77;;;8.10;98.90;;;;;;4992864;28;20417;-75
2022/01/28 11:43:26;;;;;;;7.60;2.40;;;7.80;99.40;;;;;;4993176;28;20428;-77
2022/01/28 11:46:04;;;;;;;4.30;1.97;;;7.60;99.90;;;;;;4992914;28;20488;-74
2022/01/28 11:48:55;;;;;;;8.27;2.20;;;7.70;99.90;;;;;;4992521;28;20979;-72
2022/01/28 11:51:41;;;;;;;2.20;2.00;;;7.70;99.90;;;;;;4992486;28;20449;-74
2022/01/28 11:54:13;;;;;;;4.63;2.23;;;7.40;99.90;;;;;;4992248;28;20437;-73
2022/01/28 11:56:57;;;;;;;5.17;2.40;;;7.30;99.90;;;;;;4992094;28;20468;-74
2022/01/28 11:59:26;;;;;;;5.20;2.33;;;7.10;99.90;;;;;;4992123;28;20914;-76
2022/01/28 12:01:52;;;;;;;7.57;2.53;;;6.90;99.90;;;;;;4991754;28;20417;-75
2022/01/28 12:04:24;;;;;;;6.13;2.80;;;6.80;99.90;;;;;;4990118;28;20791;-75
2022/01/28 12:06:59;;;;;;;9.47;1.87;;;6.80;99.90;;;;;;4991472;28;20248;-75
2022/01/28 12:09:34;;;;;;;6.00;2.27;;;7.00;99.90;;;;;;4991366;28;20428;-74
2022/01/28 12:12:00;;;;;;;3.47;2.00;;;7.00;99.90;;;;;;4991396;28;20418;-74
2022/01/28 12:14:52;;;;;;;4.40;1.50;;;6.90;99.90;;;;;;4991433;28;20918;-75
2022/01/28 12:17:40;;;;;;;3.83;1.80;;;6.90;99.90;;;;;;4991068;28;20472;-74
2022/01/28 12:20:36;;;;;;;2.83;1.67;;;7.00;99.90;;;;;;4991555;28;20445;-75
2022/01/28 12:23:10;;;;;;;6.03;1.97;;;7.10;99.50;;;;;;4989632;28;20425;-74
2022/01/28 12:25:36;;;;;;;6.70;2.03;;;6.90;98.70;;;;;;4991401;28;20421;-75
2022/01/28 12:28:11;;;;;;;2.70;1.53;;;6.90;99.00;;;;;;4991279;28;20421;-75
2022/01/28 12:30:38;;;;;;;6.00;1.30;;;6.80;98.80;;;;;;4991027;28;20177;-76
2022/01/28 12:33:03;;;;;;;3.70;1.63;;;6.70;99.90;;;;;;4991263;28;20821;-74
2022/01/28 12:35:29;;;;;;;4.20;1.17;;;6.70;99.40;;;;;;4991075;28;20504;-76
2022/01/28 12:38:00;;;;;;;2.87;1.53;;;6.80;98.90;;;;;;4991024;28;20213;-76
2022/01/28 12:40:34;;;;;;;3.50;1.57;;;6.80;98.80;;;;;;4991028;28;20178;-75
2022/01/28 12:43:00;;;;;;;3.70;1.97;;;6.80;98.10;;;;;;4991119;28;20424;-75
2022/01/28 12:45:26;;;;;;;5.93;1.87;;;6.80;98.40;;;;;;4990465;28;20413;-76
2022/01/28 12:47:51;;;;;;;3.83;1.60;;;6.70;98.50;;;;;;4990581;28;20269;-76
2022/01/28 12:50:19;;;;;;;3.87;1.73;;;6.60;97.40;;;;;;4990025;28;20185;-76
2022/01/28 12:52:46;;;;;;;3.50;1.80;;;6.40;97.80;;;;;;4989975;28;20815;-75
2022/01/28 12:55:12;;;;;;;3.10;1.67;;;6.40;98.20;;;;;;4989950;28;20749;-75
2022/01/28 12:57:42;;;;;;;7.10;1.23;;;6.40;99.00;;;;;;4989861;28;20465;-73
2022/01/28 13:00:09;;;;;;;3.87;1.90;;;6.40;99.00;;;;;;4990195;28;20448;-75
2022/01/28 13:02:36;;;;;;;4.30;1.43;;;6.30;99.60;;;;;;4990443;28;20417;-78
2022/01/28 13:10:25;;;;;;;1.93;1.17;;;6.20;99.90;;;;;;4989848;28;20860;-79
2022/01/28 13:12:52;;;;;;;3.50;1.53;;;6.60;98.50;;;;;;4989067;28;20424;-77
2022/01/28 13:15:19;;;;;;;3.80;1.47;;;6.50;98.50;;;;;;4988312;28;20433;-79
2022/01/28 13:17:58;;;;;;;4.77;1.70;;;6.40;98.00;;;;;;4990622;28;20460;-78
2022/01/28 13:20:31;;;;;;;6.70;1.40;;;6.50;98.20;;;;;;4990484;28;20401;-77
2022/01/28 13:22:56;;;;;;;7.43;1.90;;;6.50;98.80;;;;;;4988377;28;20409;-77
2022/01/28 13:25:25;;;;;;;2.03;1.60;;;6.50;99.30;;;;;;4987779;28;20429;-78
2022/01/28 13:27:57;;;;;;;3.83;1.50;;;6.40;99.70;;;;;;4990029;28;20178;-78
2022/01/28 13:30:24;;;;;;;8.13;2.80;;;6.40;99.30;;;;;;4990157;28;20429;-77
2022/01/28 13:32:51;;;;;;;7.10;2.90;;;6.20;99.50;;;;;;4988691;28;20926;-77
2022/01/28 13:35:22;;;;;;;4.97;2.83;;;6.10;99.90;;;;;;4989889;28;20484;-76
2022/01/28 13:37:54;;;;;;;4.97;1.60;;;5.90;99.80;;;;;;4989021;28;21055;-77
2022/01/28 13:40:29;;;;;;;3.03;1.57;;;5.80;99.90;;;;;;4989801;28;20556;-79
2022/01/28 13:42:55;;;;;;;4.10;1.63;;;5.70;99.90;;;;;;4991216;28;20419;-79
2022/01/28 13:45:34;;;;;;;1.33;1.10;;;5.80;99.90;;;;;;4989551;28;20475;-77
2022/01/28 13:48:01;;;;;;;2.00;1.00;;;5.80;99.90;;;;;;4989240;28;20441;-77
2022/01/28 13:50:39;;;;;;;3.50;1.70;;;5.70;99.90;;;;;;4990509;28;21095;-77
2022/01/28 13:55:50;;;;;;;3.40;1.20;;;5.80;99.90;;;;;;4988800;28;20445;-76
2022/01/28 13:58:17;;;;;;;3.80;1.27;;;5.90;99.90;;;;;;4989041;28;20551;-77
2022/01/28 14:00:48;;;;;;;2.47;1.77;;;5.90;99.90;;;;;;4989035;28;20421;-75
2022/01/28 14:03:22;;;;;;;1.90;1.20;;;5.90;99.90;;;;;;4987267;28;20459;-78
2022/01/28 14:05:52;;;;;;;8.73;3.20;;;6.00;99.90;;;;;;4988858;28;20436;-76
2022/01/28 14:09:03;;;;;;;4.40;1.63;;;6.00;99.60;;;;;;4989133;28;20421;-75
2022/01/28 14:11:33;;;;;;;5.30;2.00;;;6.00;99.40;;;;;;4966834;28;20460;-77
2022/01/28 14:14:17;;;;;;;2.90;1.50;;;5.90;99.40;;;;;;4986645;28;20448;-78
2022/01/28 14:16:57;;;;;;;2.23;1.80;;;5.90;99.50;;;;;;4987190;28;20526;-77
2022/01/28 14:19:24;;;;;;;5.10;2.10;;;5.80;99.90;;;;;;4987171;28;20435;-76
2022/01/28 14:21:51;;;;;;;7.10;3.17;;;5.70;99.90;;;;;;4988972;28;20184;-76
2022/01/28 14:24:27;;;;;;;4.90;2.30;;;5.80;99.90;;;;;;4987668;28;20428;-77
2022/01/28 14:32:08;;;;;;;7.40;2.97;;;5.90;99.90;;;;;;4987503;28;20801;-77
2022/01/28 14:34:34;;;;;;;3.97;2.20;;;5.90;99.90;;;;;;4987939;28;20413;-77
2022/01/28 14:37:02;;;;;;;7.13;2.50;;;6.00;99.90;;;;;;4988207;28;20502;-77
2022/01/28 14:39:29;;;;;;;6.23;2.90;;;6.10;99.90;;;;;;4988188;28;20460;-77
2022/01/28 14:42:01;;;;;;;3.87;2.67;;;6.00;99.90;;;;;;4986760;28;20934;-77
2022/01/28 14:44:26;;;;;;;8.10;3.20;;;5.90;99.90;;;;;;4988018;28;20421;-77
2022/01/28 14:46:52;;;;;;;4.97;2.80;;;5.90;99.90;;;;;;4987788;28;20467;-77